Terminal Aerodrome Forecast
Issued by NWS

Home | Current Version | Previous Version | Text Only | Print | Product List | Glossary On
Versions: 1 2 3 4 5 6 7 8 9 10 11 12 13 14 15 16 17 18 19 20 21 22 23 24 25 26
000
FTUS45 KRIW 220500
TAFPNA
TAF
KPNA 220526Z 2206/2306 VRB06KT P6SM VCSH SCT025 BKN040
      TEMPO 2208/2212 BKN025
     FM221800 28010G20KT P6SM VCSH SCT040 BKN060 PROB30 2221/2224
      -TSRA BKN040CB
     FM230200 29007KT P6SM BKN070
      AMD LTD TO CLD VIS AND WIND=

USA.gov is the U.S. government's official web portal to all federal, state and local government web resources and services.